createdAt,value
2022-12-01T00:01:19.603Z,7.87
2022-12-01T00:03:46.859Z,6.83
2022-12-01T00:06:16.728Z,7.30
2022-12-01T00:09:05.926Z,6.80
2022-12-01T00:11:34.913Z,7.17
2022-12-01T00:14:02.258Z,7.30
2022-12-01T00:16:30.243Z,5.90
2022-12-01T00:18:57.330Z,6.77
2022-12-01T00:21:26.048Z,6.73
2022-12-01T00:23:55.622Z,7.27
2022-12-01T00:26:24.188Z,6.97
2022-12-01T00:28:56.320Z,7.10
2022-12-01T00:31:23.733Z,7.17
2022-12-01T00:33:50.960Z,6.73
2022-12-01T00:36:18.498Z,6.53
2022-12-01T00:38:46.253Z,6.27
2022-12-01T00:41:14.163Z,6.80
2022-12-01T00:43:41.392Z,6.33
2022-12-01T00:46:09.045Z,6.40
2022-12-01T00:48:36.165Z,7.00
2022-12-01T00:51:03.659Z,6.17
2022-12-01T00:53:30.881Z,6.53
2022-12-01T00:55:58.259Z,6.50
2022-12-01T00:58:25.414Z,6.80
2022-12-01T01:01:00.436Z,6.20
2022-12-01T01:03:28.454Z,6.57
2022-12-01T01:05:55.980Z,5.87
2022-12-01T01:08:23.544Z,6.07
2022-12-01T01:10:51.863Z,5.80
2022-12-01T01:13:19.069Z,7.17
2022-12-01T01:15:46.388Z,6.00
2022-12-01T01:18:13.436Z,6.20
2022-12-01T01:20:40.482Z,6.07
2022-12-01T01:23:07.557Z,5.87
2022-12-01T01:25:35.002Z,6.53
2022-12-01T01:28:02.092Z,6.47
2022-12-01T01:30:29.378Z,5.57
2022-12-01T01:32:56.772Z,5.73
2022-12-01T01:35:23.836Z,6.30
2022-12-01T01:37:52.102Z,7.00
2022-12-01T01:40:19.408Z,5.73
2022-12-01T01:42:46.682Z,6.40
2022-12-01T01:45:25.598Z,5.93
2022-12-01T01:47:54.307Z,5.43
2022-12-01T01:50:25.643Z,5.20
2022-12-01T01:53:02.873Z,5.67
2022-12-01T01:55:32.419Z,5.87
2022-12-01T01:58:00.293Z,5.77
2022-12-01T02:00:27.803Z,5.50
2022-12-01T02:03:00.554Z,4.63
2022-12-01T02:05:31.312Z,4.60
2022-12-01T02:08:00.712Z,4.93
2022-12-01T02:10:40.036Z,4.43
2022-12-01T02:13:39.518Z,4.70
2022-12-01T02:16:09.571Z,3.93
2022-12-01T02:18:45.200Z,4.10
2022-12-01T02:21:47.070Z,3.77
2022-12-01T02:24:46.083Z,3.53
2022-12-01T02:27:22.080Z,3.63
2022-12-01T02:30:06.973Z,3.97
2022-12-01T02:32:39.772Z,4.43
2022-12-01T02:35:32.348Z,3.67
2022-12-01T02:38:24.005Z,4.03
2022-12-01T02:41:05.589Z,4.10
2022-12-01T02:43:54.890Z,4.37
2022-12-01T02:46:25.106Z,3.73
2022-12-01T02:48:57.774Z,4.23
2022-12-01T02:51:31.337Z,4.13
2022-12-01T02:54:00.418Z,3.87
2022-12-01T02:56:27.788Z,3.47
2022-12-01T02:58:55.527Z,3.47
2022-12-01T03:01:22.540Z,3.87
2022-12-01T03:03:58.950Z,3.50
2022-12-01T03:06:54.487Z,4.10
2022-12-01T03:09:35.646Z,3.50
2022-12-01T03:12:20.444Z,3.10
2022-12-01T03:15:27.588Z,3.30
2022-12-01T03:18:06.721Z,3.17
2022-12-01T03:21:02.918Z,3.13
2022-12-01T03:23:34.119Z,2.53
2022-12-01T03:26:08.626Z,2.70
2022-12-01T03:28:41.958Z,2.67
2022-12-01T03:31:14.741Z,2.40
2022-12-01T03:33:51.032Z,2.87
2022-12-01T03:36:38.830Z,2.13
2022-12-01T03:39:11.952Z,2.60
2022-12-01T03:41:44.057Z,2.23
2022-12-01T03:44:19.675Z,2.33
2022-12-01T03:46:59.407Z,2.17
2022-12-01T03:49:27.143Z,2.43
2022-12-01T03:52:19.930Z,2.23
2022-12-01T03:54:52.356Z,2.13
2022-12-01T03:57:29.680Z,2.60
2022-12-01T03:59:57.040Z,2.43
2022-12-01T04:02:27.959Z,2.50
2022-12-01T04:04:55.086Z,2.60
2022-12-01T04:07:23.636Z,2.80
2022-12-01T04:09:51.431Z,2.73
2022-12-01T04:12:30.599Z,2.83
2022-12-01T04:14:58.530Z,3.10
2022-12-01T04:17:28.950Z,3.40
2022-12-01T04:19:56.816Z,3.47
2022-12-01T04:22:24.796Z,3.37
2022-12-01T04:24:52.973Z,3.37
2022-12-01T04:27:20.662Z,3.63
2022-12-01T04:29:48.256Z,3.63
2022-12-01T04:32:15.480Z,3.53
2022-12-01T04:34:42.671Z,4.63
2022-12-01T04:37:10.287Z,4.67
2022-12-01T04:39:38.109Z,4.17
2022-12-01T04:42:05.848Z,3.83
2022-12-01T04:44:35.002Z,4.53
2022-12-01T04:47:03.748Z,4.10
2022-12-01T04:49:31.654Z,4.53
2022-12-01T04:51:58.648Z,4.60
2022-12-01T04:54:27.019Z,4.47
2022-12-01T04:56:54.022Z,4.87
2022-12-01T04:59:21.350Z,4.53
2022-12-01T05:01:48.516Z,4.77
2022-12-01T05:04:16.001Z,4.20
2022-12-01T05:06:43.791Z,4.00
2022-12-01T05:09:17.475Z,4.53
2022-12-01T05:11:45.331Z,4.37
2022-12-01T05:14:12.366Z,3.43
2022-12-01T05:16:39.615Z,3.67
2022-12-01T05:19:25.349Z,3.33
2022-12-01T05:21:53.158Z,3.70
2022-12-01T05:24:21.471Z,4.17
2022-12-01T05:26:49.090Z,3.40
2022-12-01T05:29:16.181Z,3.77
2022-12-01T05:31:43.388Z,3.83
2022-12-01T05:34:10.520Z,3.67
2022-12-01T05:36:37.796Z,3.93
2022-12-01T05:39:05.394Z,4.10
2022-12-01T05:41:32.836Z,4.00
2022-12-01T05:43:59.906Z,3.97
2022-12-01T05:46:27.059Z,3.43
2022-12-01T05:48:54.144Z,3.77
2022-12-01T05:51:21.389Z,3.60
2022-12-01T05:53:48.495Z,3.33
2022-12-01T05:56:16.000Z,3.87
2022-12-01T05:58:43.145Z,3.77
2022-12-01T06:01:10.924Z,3.40
2022-12-01T06:03:37.938Z,3.63
2022-12-01T06:06:05.312Z,3.83
2022-12-01T06:08:32.850Z,4.00
2022-12-01T06:11:00.107Z,4.23
2022-12-01T06:13:27.482Z,4.00
2022-12-01T06:16:03.808Z,4.80
2022-12-01T06:18:37.124Z,4.83
2022-12-01T06:21:06.562Z,5.10
2022-12-01T06:23:34.370Z,4.87
2022-12-01T06:26:03.396Z,4.67
2022-12-01T06:28:30.613Z,4.80
2022-12-01T06:31:02.904Z,5.73
2022-12-01T06:33:32.114Z,5.40
2022-12-01T06:36:04.690Z,5.97
2022-12-01T06:38:34.395Z,6.20
2022-12-01T06:41:02.392Z,6.03
2022-12-01T06:43:30.068Z,6.30
2022-12-01T06:46:01.743Z,6.37
2022-12-01T06:48:29.140Z,6.50
2022-12-01T06:51:00.306Z,6.33
2022-12-01T06:53:28.876Z,6.07
2022-12-01T06:56:06.071Z,5.87
2022-12-01T06:58:36.369Z,6.50
2022-12-01T07:01:12.608Z,5.90
2022-12-01T07:03:39.921Z,5.67
2022-12-01T07:06:07.211Z,5.70
2022-12-01T07:08:34.713Z,5.67
2022-12-01T07:11:07.708Z,5.90
2022-12-01T07:13:36.125Z,5.77
2022-12-01T07:16:04.155Z,5.37
2022-12-01T07:18:33.210Z,4.93
2022-12-01T07:21:07.830Z,5.13
2022-12-01T07:23:35.430Z,5.87
2022-12-01T07:26:08.612Z,5.60
2022-12-01T07:28:35.794Z,5.17
2022-12-01T07:31:07.096Z,5.20
2022-12-01T07:33:35.462Z,5.17
2022-12-01T07:36:03.305Z,5.80
2022-12-01T07:38:32.315Z,5.60
2022-12-01T07:41:16.624Z,5.87
2022-12-01T07:43:43.707Z,6.03
2022-12-01T07:46:17.362Z,5.70
2022-12-01T07:48:49.111Z,6.17
2022-12-01T07:51:16.938Z,5.70
2022-12-01T07:53:45.247Z,7.17
2022-12-01T07:56:13.336Z,7.40
2022-12-01T07:58:40.973Z,6.53
2022-12-01T08:01:13.645Z,7.20
2022-12-01T08:03:41.477Z,6.80
2022-12-01T08:06:09.721Z,7.10
2022-12-01T08:08:38.686Z,7.07
2022-12-01T08:11:18.100Z,6.50
2022-12-01T08:13:45.740Z,6.07
2022-12-01T08:16:15.985Z,6.93
2022-12-01T08:18:44.128Z,6.57
2022-12-01T08:21:14.093Z,6.77
2022-12-01T08:23:42.401Z,6.80
2022-12-01T08:26:13.252Z,6.97
2022-12-01T08:28:40.980Z,6.17
2022-12-01T08:31:24.289Z,6.13
2022-12-01T08:33:52.250Z,6.37
2022-12-01T08:36:20.931Z,7.60
2022-12-01T08:38:51.075Z,8.60
2022-12-01T08:41:19.630Z,7.77
2022-12-01T08:43:57.859Z,7.40
2022-12-01T08:46:26.956Z,6.67
2022-12-01T08:48:55.282Z,7.63
2022-12-01T08:51:22.601Z,7.27
2022-12-01T08:53:50.498Z,7.57
2022-12-01T08:56:24.567Z,6.83
2022-12-01T08:58:52.189Z,7.60
2022-12-01T09:01:19.964Z,7.90
2022-12-01T09:03:47.185Z,7.07
2022-12-01T09:06:20.943Z,7.03
2022-12-01T09:08:48.741Z,7.03
2022-12-01T09:11:18.182Z,7.10
2022-12-01T09:13:52.951Z,7.50
2022-12-01T09:16:21.754Z,7.07
2022-12-01T09:18:49.485Z,7.57
2022-12-01T09:21:20.126Z,7.67
2022-12-01T09:23:48.091Z,7.17
2022-12-01T09:26:18.796Z,7.80
2022-12-01T09:28:47.645Z,7.90
2022-12-01T09:31:16.758Z,8.23
2022-12-01T09:33:44.413Z,7.60
2022-12-01T09:36:12.124Z,7.77
2022-12-01T09:38:39.837Z,7.40
2022-12-01T09:41:33.365Z,7.57
2022-12-01T09:44:06.233Z,6.93
2022-12-01T09:46:41.559Z,7.53
2022-12-01T09:49:19.116Z,7.33
2022-12-01T09:51:46.574Z,7.40
2022-12-01T09:54:14.911Z,7.70
2022-12-01T09:56:49.698Z,6.87
2022-12-01T09:59:25.495Z,7.73
2022-12-01T10:01:59.539Z,6.53
2022-12-01T10:04:41.653Z,7.17
2022-12-01T10:07:20.998Z,7.77
2022-12-01T10:09:52.490Z,6.57
2022-12-01T10:12:28.120Z,6.73
2022-12-01T10:15:13.285Z,6.20
2022-12-01T10:18:10.831Z,6.50
2022-12-01T10:21:10.364Z,5.37
2022-12-01T10:23:43.693Z,5.67
2022-12-01T10:26:16.989Z,7.33
2022-12-01T10:29:10.020Z,6.83
2022-12-01T10:31:56.233Z,6.10
2022-12-01T10:34:43.585Z,6.07
2022-12-01T10:37:20.733Z,5.90
2022-12-01T10:39:50.871Z,6.30
2022-12-01T10:42:40.822Z,6.63
2022-12-01T10:45:20.494Z,6.20
2022-12-01T10:48:15.899Z,6.13
2022-12-01T10:50:45.387Z,5.83
2022-12-01T10:53:25.525Z,6.73
2022-12-01T10:55:59.540Z,5.63
2022-12-01T10:58:27.024Z,6.30
2022-12-01T11:01:04.870Z,6.43
2022-12-01T11:03:35.295Z,6.60
2022-12-01T11:06:05.632Z,6.97
2022-12-01T11:08:56.791Z,6.97
2022-12-01T11:11:31.518Z,6.13
2022-12-01T11:14:02.745Z,6.83
2022-12-01T11:16:37.898Z,6.50
2022-12-01T11:19:25.313Z,6.37
2022-12-01T11:22:00.007Z,6.27
2022-12-01T11:24:43.642Z,6.03
2022-12-01T11:27:23.950Z,6.07
2022-12-01T11:29:55.308Z,6.27
2022-12-01T11:32:29.057Z,6.50
2022-12-01T11:35:17.087Z,6.20
2022-12-01T11:38:13.271Z,5.77
2022-12-01T11:40:50.672Z,5.03
2022-12-01T11:43:29.769Z,6.23
2022-12-01T11:46:01.211Z,6.63
2022-12-01T11:48:31.109Z,5.97
2022-12-01T11:51:13.120Z,6.50
2022-12-01T11:53:44.143Z,6.33
2022-12-01T11:56:28.974Z,6.97
2022-12-01T11:59:26.879Z,6.27
2022-12-01T12:02:08.950Z,6.57
2022-12-01T12:05:09.351Z,5.80
2022-12-01T12:08:04.708Z,5.70
2022-12-01T12:10:40.964Z,5.90
2022-12-01T12:13:29.521Z,6.27
2022-12-01T12:16:26.400Z,5.77
2022-12-01T12:19:33.814Z,6.20
2022-12-01T12:22:45.841Z,5.03
2022-12-01T12:25:30.050Z,5.53
2022-12-01T12:28:31.194Z,6.23
2022-12-01T12:31:11.657Z,5.93
2022-12-01T12:33:58.092Z,6.27
2022-12-01T12:36:57.732Z,6.37
2022-12-01T12:39:32.560Z,5.80
2022-12-01T12:42:07.738Z,6.43
2022-12-01T12:44:50.862Z,5.93
2022-12-01T12:47:23.586Z,6.80
2022-12-01T12:50:15.259Z,6.23
2022-12-01T12:52:46.743Z,5.67
2022-12-01T12:55:23.414Z,7.13
2022-12-01T12:58:07.924Z,7.00
2022-12-01T13:00:44.299Z,6.10
2022-12-01T13:03:20.591Z,6.80
2022-12-01T13:06:02.728Z,6.23
2022-12-01T13:08:38.827Z,5.63
2022-12-01T13:11:30.837Z,6.10
2022-12-01T13:14:05.350Z,6.37
2022-12-01T13:16:46.360Z,6.30
2022-12-01T13:19:23.976Z,6.17
2022-12-01T13:21:53.194Z,6.57
2022-12-01T13:24:29.916Z,6.97
2022-12-01T13:26:59.699Z,6.33
2022-12-01T13:29:29.270Z,6.90
2022-12-01T13:31:56.591Z,7.30
2022-12-01T13:34:38.090Z,6.67
2022-12-01T13:37:05.743Z,6.53
2022-12-01T13:39:37.645Z,6.73
2022-12-01T13:42:27.310Z,7.07
2022-12-01T13:45:07.382Z,6.60
2022-12-01T13:47:37.592Z,7.03
2022-12-01T13:50:54.100Z,6.73
2022-12-01T13:53:23.564Z,5.37
2022-12-01T13:56:04.238Z,7.23
2022-12-01T13:58:34.410Z,6.27
2022-12-01T14:01:20.769Z,6.43
2022-12-01T14:03:57.027Z,6.53
2022-12-01T14:06:38.607Z,6.50
2022-12-01T14:09:17.941Z,6.37
2022-12-01T14:12:03.230Z,7.70
2022-12-01T14:14:43.639Z,5.37
2022-12-01T14:17:35.041Z,6.03
2022-12-01T14:20:23.319Z,6.13
2022-12-01T14:23:11.157Z,6.63
2022-12-01T14:25:39.660Z,6.40
2022-12-01T14:28:15.952Z,6.83
2022-12-01T14:30:45.283Z,5.63
2022-12-01T14:33:39.865Z,6.20
2022-12-01T14:36:10.561Z,6.43
2022-12-01T14:38:38.202Z,6.90
2022-12-01T14:41:11.257Z,6.00
2022-12-01T14:44:00.291Z,5.83
2022-12-01T14:46:32.446Z,5.60
2022-12-01T14:48:59.573Z,6.27
2022-12-01T14:51:36.331Z,5.37
2022-12-01T14:54:15.140Z,4.87
2022-12-01T14:56:44.116Z,5.80
2022-12-01T14:59:26.488Z,6.03
2022-12-01T15:01:58.529Z,6.07
2022-12-01T15:04:26.394Z,5.90
2022-12-01T15:06:56.562Z,4.80
2022-12-01T15:09:33.488Z,5.30
2022-12-01T15:12:05.056Z,5.63
2022-12-01T15:14:47.877Z,5.93
2022-12-01T15:17:33.052Z,5.03
2022-12-01T15:20:01.251Z,5.60
2022-12-01T15:22:31.675Z,5.07
2022-12-01T15:25:15.977Z,5.27
2022-12-01T15:27:43.943Z,4.77
2022-12-01T15:30:21.104Z,6.10
2022-12-01T15:32:48.433Z,5.07
2022-12-01T15:35:20.558Z,5.57
2022-12-01T15:37:48.131Z,5.67
2022-12-01T15:43:20.146Z,5.37
2022-12-01T15:45:49.714Z,5.93
2022-12-01T15:48:25.829Z,5.20
2022-12-01T15:51:17.817Z,5.23
2022-12-01T15:54:02.713Z,4.87
2022-12-01T15:56:38.023Z,5.40
2022-12-01T15:59:25.912Z,5.87
2022-12-01T16:01:53.558Z,6.07
2022-12-01T16:04:24.060Z,6.37
2022-12-01T16:07:17.766Z,7.03
2022-12-01T16:09:59.051Z,6.20
2022-12-01T16:12:28.371Z,5.67
2022-12-01T16:15:01.709Z,6.00
2022-12-01T16:17:45.657Z,6.20
2022-12-01T16:20:28.070Z,6.17
2022-12-01T16:23:04.201Z,6.07
2022-12-01T16:25:42.407Z,6.73
2022-12-01T16:28:22.053Z,6.77
2022-12-01T16:30:49.859Z,6.83
2022-12-01T16:33:19.851Z,6.17
2022-12-01T16:35:47.172Z,6.83
2022-12-01T16:38:20.867Z,7.57
2022-12-01T16:40:53.417Z,7.23
2022-12-01T16:43:26.849Z,6.47
2022-12-01T16:46:07.110Z,6.30
2022-12-01T16:48:35.311Z,6.97
2022-12-01T16:51:04.874Z,6.87
2022-12-01T16:53:32.301Z,6.60
2022-12-01T16:56:02.028Z,6.70
2022-12-01T16:58:29.532Z,7.13
2022-12-01T17:00:56.667Z,6.73
2022-12-01T17:03:29.294Z,7.17
2022-12-01T17:05:59.122Z,7.50
2022-12-01T17:08:26.276Z,7.80
2022-12-01T17:10:54.191Z,6.87
2022-12-01T17:13:25.937Z,7.13
2022-12-01T17:15:55.289Z,7.37
2022-12-01T17:18:23.712Z,8.03
2022-12-01T17:20:59.177Z,7.37
2022-12-01T17:23:26.991Z,7.13
2022-12-01T17:25:54.451Z,7.53
2022-12-01T17:28:21.679Z,7.87
2022-12-01T17:30:48.768Z,7.07
2022-12-01T17:33:15.935Z,7.17
2022-12-01T17:35:43.200Z,7.27
2022-12-01T17:38:10.323Z,6.60
2022-12-01T17:40:37.640Z,7.13
2022-12-01T17:43:07.798Z,6.60
2022-12-01T17:45:42.161Z,7.83
2022-12-01T17:48:09.459Z,7.20
2022-12-01T17:50:38.165Z,8.23
2022-12-01T17:53:05.443Z,7.03
2022-12-01T17:55:33.067Z,7.87
2022-12-01T17:58:00.273Z,7.10
2022-12-01T18:00:27.565Z,6.97
2022-12-01T18:02:54.944Z,7.67
2022-12-01T18:05:22.340Z,7.37
2022-12-01T18:07:49.858Z,7.87
2022-12-01T18:10:17.801Z,7.13
2022-12-01T18:12:45.118Z,7.50
2022-12-01T18:15:12.776Z,8.20
2022-12-01T18:17:40.136Z,7.30
2022-12-01T18:20:08.517Z,7.27
2022-12-01T18:22:35.749Z,8.30
2022-12-01T18:25:03.892Z,7.87
2022-12-01T18:27:31.179Z,8.07
2022-12-01T18:29:58.483Z,7.77
2022-12-01T18:32:25.709Z,7.90
2022-12-01T18:34:53.291Z,8.20
2022-12-01T18:37:20.619Z,8.53
2022-12-01T18:39:48.430Z,6.93
2022-12-01T18:42:15.698Z,7.13
2022-12-01T18:44:43.045Z,8.33
2022-12-01T18:47:10.912Z,8.40
2022-12-01T18:49:38.323Z,7.63
2022-12-01T18:52:05.669Z,7.83
2022-12-01T18:54:33.191Z,8.53
2022-12-01T18:57:02.081Z,8.33
2022-12-01T18:59:29.718Z,7.67
2022-12-01T19:01:57.180Z,7.30
2022-12-01T19:04:24.443Z,8.63
2022-12-01T19:06:52.253Z,8.00
2022-12-01T19:09:20.495Z,8.30
2022-12-01T19:11:48.999Z,7.50
2022-12-01T19:14:19.231Z,7.60
2022-12-01T19:16:48.083Z,7.17
2022-12-01T19:19:16.774Z,7.57
2022-12-01T19:21:46.074Z,7.63
2022-12-01T19:24:14.689Z,6.80
2022-12-01T19:26:43.586Z,7.17
2022-12-01T19:29:13.698Z,7.00
2022-12-01T19:31:42.071Z,6.77
2022-12-01T19:34:10.958Z,7.57
2022-12-01T19:36:39.235Z,6.77
2022-12-01T19:39:07.875Z,7.30
2022-12-01T19:41:39.246Z,6.73
2022-12-01T19:44:07.522Z,6.93
2022-12-01T19:46:35.949Z,6.50
2022-12-01T19:49:05.168Z,6.10
2022-12-01T19:51:38.172Z,6.93
2022-12-01T19:54:08.760Z,6.10
2022-12-01T19:56:36.454Z,6.17
2022-12-01T19:59:05.100Z,6.67
2022-12-01T20:01:32.759Z,6.47
2022-12-01T20:04:00.867Z,5.47
2022-12-01T20:06:31.765Z,6.33
2022-12-01T20:09:07.834Z,6.00
2022-12-01T20:11:37.426Z,6.23
2022-12-01T20:14:08.395Z,6.73
2022-12-01T20:16:41.590Z,5.93
2022-12-01T20:19:09.661Z,7.23
2022-12-01T20:21:42.870Z,6.83
2022-12-01T20:24:17.993Z,6.50
2022-12-01T20:26:58.017Z,6.63
2022-12-01T20:29:29.334Z,5.93
2022-12-01T20:31:59.721Z,6.93
2022-12-01T20:34:32.160Z,6.40
2022-12-01T20:37:00.809Z,6.90
2022-12-01T20:39:32.836Z,6.17
2022-12-01T20:42:01.135Z,6.63
2022-12-01T20:44:29.222Z,5.77
2022-12-01T20:46:59.691Z,5.90
2022-12-01T20:49:30.448Z,6.40
2022-12-01T20:51:58.905Z,5.93
2022-12-01T20:54:29.121Z,6.37
2022-12-01T20:56:58.405Z,6.03
2022-12-01T20:59:26.573Z,6.53
2022-12-01T21:01:53.848Z,5.13
2022-12-01T21:04:21.336Z,5.97
2022-12-01T21:06:50.272Z,6.50
2022-12-01T21:09:18.257Z,5.63
2022-12-01T21:12:08.731Z,6.07
2022-12-01T21:15:10.544Z,6.03
2022-12-01T21:17:44.290Z,5.40
2022-12-01T21:20:23.727Z,5.93
2022-12-01T21:22:53.714Z,6.30
2022-12-01T21:25:23.650Z,5.83
2022-12-01T21:27:51.943Z,6.20
2022-12-01T21:30:22.296Z,6.67
2022-12-01T21:32:50.402Z,6.13
2022-12-01T21:35:25.136Z,6.37
2022-12-01T21:38:07.304Z,6.37
2022-12-01T21:40:34.661Z,6.10
2022-12-01T21:43:22.782Z,6.23
2022-12-01T21:46:03.338Z,6.30
2022-12-01T21:48:36.768Z,6.33
2022-12-01T21:51:25.213Z,6.50
2022-12-01T21:53:56.060Z,6.57
2022-12-01T21:56:28.953Z,6.17
2022-12-01T21:58:59.479Z,6.73
2022-12-01T22:01:35.514Z,6.30
2022-12-01T22:04:13.191Z,6.23
2022-12-01T22:06:43.912Z,5.57
2022-12-01T22:09:36.038Z,5.87
2022-12-01T22:12:12.851Z,6.17
2022-12-01T22:14:40.206Z,5.13
2022-12-01T22:17:07.137Z,6.07
2022-12-01T22:19:38.175Z,6.40
2022-12-01T22:22:11.628Z,6.50
2022-12-01T22:24:42.004Z,6.20
2022-12-01T22:27:12.179Z,6.53
2022-12-01T22:29:46.065Z,6.30
2022-12-01T22:32:12.995Z,6.07
2022-12-01T22:34:49.552Z,6.10
2022-12-01T22:37:23.500Z,6.33
2022-12-01T22:39:54.868Z,6.47
2022-12-01T22:42:33.292Z,6.27
2022-12-01T22:45:23.928Z,5.83
2022-12-01T22:47:51.816Z,5.53
2022-12-01T22:50:50.094Z,6.53
2022-12-01T22:53:27.145Z,5.50
2022-12-01T22:55:56.823Z,5.67
2022-12-01T22:58:25.072Z,6.10
2022-12-01T23:00:52.844Z,6.70
2022-12-01T23:03:20.267Z,6.37
2022-12-01T23:05:54.489Z,6.60
2022-12-01T23:08:22.982Z,6.67
2022-12-01T23:10:50.993Z,6.67
2022-12-01T23:13:24.981Z,7.00
2022-12-01T23:15:54.285Z,6.23
2022-12-01T23:18:30.038Z,6.40
2022-12-01T23:20:59.235Z,6.13
2022-12-01T23:23:29.600Z,6.70
2022-12-01T23:25:57.714Z,6.07
2022-12-01T23:28:25.575Z,6.10
2022-12-01T23:30:56.609Z,6.47
2022-12-01T23:33:26.210Z,6.67
2022-12-01T23:35:55.958Z,6.67
2022-12-01T23:38:32.000Z,6.57
2022-12-01T23:41:01.634Z,7.07
2022-12-01T23:43:35.870Z,6.20
2022-12-01T23:46:07.683Z,6.20
2022-12-01T23:48:39.731Z,6.83
2022-12-01T23:51:23.213Z,6.47
2022-12-01T23:53:52.556Z,5.57
2022-12-01T23:56:21.932Z,7.03
2022-12-01T23:58:50.220Z,7.17
